Nearby METAR Reports

 

KHCR - Heber/Russ Mcdon, Utah, USA
Distance from station: SSW 18mi, 29km
Updated: Thu, 02-Apr-2020 4:15am MDT
Light snow, Overcast
Light snow, Overcast
 Wind from SE
Wind: SE 6 mph , 9 km/h
Temperature: 28°F , -2°C
Wind Chill: 21°F , -6°C
Dew Point: 23°F , -5°C
Humidity: 80%
Barometer: 29.86 inHg , 1011.2 hPa
Summary: Light Snow
Clouds: Overcast
Visibility: 5 miles , 8 km
Cloud details: Partly cloudy 900 ft
Mostly cloudy 2300 ft
Overcast 4100 ft
2020/04/02 10:15 KHCR 021015Z AUTO 13005KT 5SM -SN SCT009 BKN023 OVC041 M02/M05 A2986 RMK AO2
KSLC - Salt Lake City, Utah, USA
Distance from station: W 35mi, 57km
Updated: Thu, 02-Apr-2020 3:54am MDT
Overcast
Overcast
 Wind from SW
Wind: SW 5 mph , 7 km/h
Temperature: 34°F , 1°C
Wind Chill: 29°F , -2°C
Dew Point: 30°F , -1°C
Humidity: 87%
Barometer: 29.90 inHg , 1012.5 hPa
Clouds: Overcast
Visibility: 10 miles , 16 km
Cloud details: Partly cloudy 5000 ft
Overcast 11000 ft
2020/04/02 09:54 KSLC 020954Z 22004KT 10SM SCT050 OVC110 01/M01 A2990 RMK AO2 SLP114 T00111006
 
KU42 - Salt Lake Muni, Utah, USA
Distance from station: WSW 37mi, 59km
Updated: Thu, 02-Apr-2020 4:35am MDT
Mostly cloudy
Mostly cloudy
 Wind from W
Wind: W 7 mph , 11 km/h
Temperature: 32°F , 0°C
Wind Chill: 25°F , -4°C
Dew Point: 32°F , 0°C
Humidity: 100%
Barometer: 29.91 inHg , 1012.9 hPa
Clouds: Mostly cloudy
Visibility: 10 miles , 16 km
Cloud details: Mostly cloudy 11000 ft
2020/04/02 10:35 KU42 021035Z AUTO 27006KT 10SM BKN110 00/00 A2991 RMK AO1 T00011004
KEVW - Evanston, Wyoming, USA
Distance from station: NNE 40mi, 64km
Updated: Thu, 02-Apr-2020 3:53am MDT
Overcast
Overcast
 Wind from WSW
Wind: WSW 10 mph , 17 km/h
Temperature: 19°F , -7°C
Wind Chill: 8°F , -13°C
Dew Point: 18°F , -8°C
Humidity: 93%
Barometer: 29.81 inHg , 1009.5 hPa
Clouds: Overcast
Visibility: 10 miles , 16 km
Cloud details: Few Clouds 4900 ft
Mostly cloudy 7500 ft
Overcast 9000 ft
2020/04/02 09:53 KEVW 020953Z AUTO 24009KT 10SM FEW049 BKN075 OVC090 M07/M08 A2981 RMK AO2 SLP083 T10671083 PWINO $
 
KPVU - Provo Muni, Utah, USA
Distance from station: SSW 41mi, 67km
Updated: Thu, 02-Apr-2020 3:56am MDT
Overcast
Overcast
 Wind from NW
Wind: NW 10 mph , 17 km/h
Temperature: 36°F , 2°C
Wind Chill: 29°F , -2°C
Dew Point: 25°F , -4°C
Humidity: 65%
Barometer: 29.91 inHg , 1012.9 hPa
Clouds: Overcast
Visibility: 10 miles , 16 km
Cloud details: Few Clouds 2500 ft
Overcast 6500 ft
2020/04/02 09:56 KPVU 020956Z AUTO 31009KT 10SM FEW025 OVC065 02/M04 A2991 RMK AO2 SLP112 T00221039 FZRANO
KHIF - Hill Afb/Ogden, Utah, USA
Distance from station: NW 45mi, 72km
Updated: Thu, 02-Apr-2020 4:08am MDT
Mostly cloudy
Mostly cloudy
 Wind from NW
Wind: NW 7 mph , 11 km/h
Temperature: 32°F , 0°C
Wind Chill: 25°F , -4°C
Dew Point: 23°F , -5°C
Humidity: 69%
Barometer: 29.90 inHg , 1012.5 hPa
Clouds: Mostly cloudy
Visibility: 10 miles , 16 km
Cloud details: Partly cloudy 2200 ft
Partly cloudy 2800 ft
Mostly cloudy 3800 ft
2020/04/02 10:08 KHIF 021008Z AUTO 32006KT 10SM SCT022 SCT028 BKN038 00/M05 A2990 RMK AO2 SLP117
 
KOGD - Ogden, Utah, USA
Distance from station: NW 50mi, 81km
Updated: Thu, 02-Apr-2020 3:53am MDT
Mostly cloudy
Mostly cloudy
 Wind from calm
Wind: Calm
Temperature: 34°F , 1°C
Dew Point: 25°F , -4°C
Humidity: 70%
Barometer: 29.90 inHg , 1012.5 hPa
Clouds: Mostly cloudy
Visibility: 10 miles , 16 km
Cloud details: Mostly cloudy 6000 ft
2020/04/02 09:53 KOGD 020953Z AUTO 00000KT 10SM BKN060 01/M04 A2990 RMK AO2 SLP113 T00061044